sensor_id;sensor_type;location;lat;lon;timestamp;temperature;humidity
25154;DHT22;47555;51.038;6.280;2022-07-17T00:02:09;14.90;62.80
25154;DHT22;47555;51.038;6.280;2022-07-17T00:04:35;14.90;62.90
25154;DHT22;47555;51.038;6.280;2022-07-17T00:07:00;14.90;63.90
25154;DHT22;47555;51.038;6.280;2022-07-17T00:09:26;14.80;64.00
25154;DHT22;47555;51.038;6.280;2022-07-17T00:11:51;14.80;63.80
25154;DHT22;47555;51.038;6.280;2022-07-17T00:14:17;14.70;63.70
25154;DHT22;47555;51.038;6.280;2022-07-17T00:16:42;14.70;63.70
25154;DHT22;47555;51.038;6.280;2022-07-17T00:19:08;14.60;63.80
25154;DHT22;47555;51.038;6.280;2022-07-17T00:21:33;14.60;64.50
25154;DHT22;47555;51.038;6.280;2022-07-17T00:23:59;14.60;64.90
25154;DHT22;47555;51.038;6.280;2022-07-17T00:26:24;14.60;65.30
25154;DHT22;47555;51.038;6.280;2022-07-17T00:28:51;14.50;65.50
25154;DHT22;47555;51.038;6.280;2022-07-17T00:31:16;14.50;65.50
25154;DHT22;47555;51.038;6.280;2022-07-17T00:33:42;14.40;66.00
25154;DHT22;47555;51.038;6.280;2022-07-17T00:36:07;14.40;66.60
25154;DHT22;47555;51.038;6.280;2022-07-17T00:38:33;14.40;67.30
25154;DHT22;47555;51.038;6.280;2022-07-17T00:40:59;14.30;67.50
25154;DHT22;47555;51.038;6.280;2022-07-17T00:43:25;14.30;68.50
25154;DHT22;47555;51.038;6.280;2022-07-17T00:46:02;14.20;69.80
25154;DHT22;47555;51.038;6.280;2022-07-17T00:48:29;14.20;72.70
25154;DHT22;47555;51.038;6.280;2022-07-17T00:50:55;14.10;73.50
25154;DHT22;47555;51.038;6.280;2022-07-17T00:53:22;14.10;75.60
25154;DHT22;47555;51.038;6.280;2022-07-17T00:55:48;14.00;76.80
25154;DHT22;47555;51.038;6.280;2022-07-17T00:58:22;14.10;77.20
25154;DHT22;47555;51.038;6.280;2022-07-17T01:00:50;14.00;76.70
25154;DHT22;47555;51.038;6.280;2022-07-17T01:03:17;14.00;77.40
25154;DHT22;47555;51.038;6.280;2022-07-17T01:05:43;14.00;78.30
25154;DHT22;47555;51.038;6.280;2022-07-17T01:08:08;13.90;77.40
25154;DHT22;47555;51.038;6.280;2022-07-17T01:10:34;13.90;77.70
25154;DHT22;47555;51.038;6.280;2022-07-17T01:13:00;13.80;78.40
25154;DHT22;47555;51.038;6.280;2022-07-17T01:15:25;13.70;78.90
25154;DHT22;47555;51.038;6.280;2022-07-17T01:17:51;13.60;79.60
25154;DHT22;47555;51.038;6.280;2022-07-17T01:20:17;13.60;80.50
25154;DHT22;47555;51.038;6.280;2022-07-17T01:22:44;13.50;80.40
25154;DHT22;47555;51.038;6.280;2022-07-17T01:25:11;13.50;80.70
25154;DHT22;47555;51.038;6.280;2022-07-17T01:27:37;13.40;81.60
25154;DHT22;47555;51.038;6.280;2022-07-17T01:30:03;13.30;82.60
25154;DHT22;47555;51.038;6.280;2022-07-17T01:32:39;13.30;83.60
25154;DHT22;47555;51.038;6.280;2022-07-17T01:35:06;13.30;83.80
25154;DHT22;47555;51.038;6.280;2022-07-17T01:37:32;13.30;83.70
25154;DHT22;47555;51.038;6.280;2022-07-17T01:39:58;13.20;85.30
25154;DHT22;47555;51.038;6.280;2022-07-17T01:42:25;13.20;86.80
25154;DHT22;47555;51.038;6.280;2022-07-17T01:44:52;13.10;87.20
25154;DHT22;47555;51.038;6.280;2022-07-17T01:47:18;13.00;88.20
25154;DHT22;47555;51.038;6.280;2022-07-17T01:49:49;13.00;89.40
25154;DHT22;47555;51.038;6.280;2022-07-17T01:52:14;12.90;90.10
25154;DHT22;47555;51.038;6.280;2022-07-17T01:54:41;12.90;90.60
25154;DHT22;47555;51.038;6.280;2022-07-17T01:57:07;12.90;91.10
25154;DHT22;47555;51.038;6.280;2022-07-17T01:59:33;12.80;91.30
25154;DHT22;47555;51.038;6.280;2022-07-17T02:01:58;12.80;92.70
25154;DHT22;47555;51.038;6.280;2022-07-17T02:04:24;12.70;93.40
25154;DHT22;47555;51.038;6.280;2022-07-17T02:06:49;12.70;93.40
25154;DHT22;47555;51.038;6.280;2022-07-17T02:09:15;12.60;94.30
25154;DHT22;47555;51.038;6.280;2022-07-17T02:11:40;12.60;95.10
25154;DHT22;47555;51.038;6.280;2022-07-17T02:14:06;12.50;95.00
25154;DHT22;47555;51.038;6.280;2022-07-17T02:16:31;12.40;95.40
25154;DHT22;47555;51.038;6.280;2022-07-17T02:18:57;12.40;95.10
25154;DHT22;47555;51.038;6.280;2022-07-17T02:21:22;12.40;95.40
25154;DHT22;47555;51.038;6.280;2022-07-17T02:23:48;12.30;95.40
25154;DHT22;47555;51.038;6.280;2022-07-17T02:26:13;12.30;95.50
25154;DHT22;47555;51.038;6.280;2022-07-17T02:28:39;12.30;95.50
25154;DHT22;47555;51.038;6.280;2022-07-17T02:31:04;12.20;95.70
25154;DHT22;47555;51.038;6.280;2022-07-17T02:33:30;12.20;96.40
25154;DHT22;47555;51.038;6.280;2022-07-17T02:35:55;12.20;96.50
25154;DHT22;47555;51.038;6.280;2022-07-17T02:38:21;12.10;96.20
25154;DHT22;47555;51.038;6.280;2022-07-17T02:40:46;12.10;96.50
25154;DHT22;47555;51.038;6.280;2022-07-17T02:43:12;12.00;97.40
25154;DHT22;47555;51.038;6.280;2022-07-17T02:45:37;12.00;97.80
25154;DHT22;47555;51.038;6.280;2022-07-17T02:48:03;12.00;97.90
25154;DHT22;47555;51.038;6.280;2022-07-17T02:50:29;11.90;97.60
25154;DHT22;47555;51.038;6.280;2022-07-17T02:52:55;11.90;97.70
25154;DHT22;47555;51.038;6.280;2022-07-17T02:55:20;11.80;98.00
25154;DHT22;47555;51.038;6.280;2022-07-17T02:57:46;11.80;98.00
25154;DHT22;47555;51.038;6.280;2022-07-17T03:00:14;11.70;98.70
25154;DHT22;47555;51.038;6.280;2022-07-17T03:02:44;11.70;98.70
25154;DHT22;47555;51.038;6.280;2022-07-17T03:05:11;11.60;98.60
25154;DHT22;47555;51.038;6.280;2022-07-17T03:07:37;11.60;98.90
25154;DHT22;47555;51.038;6.280;2022-07-17T03:10:03;11.60;99.40
25154;DHT22;47555;51.038;6.280;2022-07-17T03:12:29;11.50;99.50
25154;DHT22;47555;51.038;6.280;2022-07-17T03:14:54;11.50;99.50
25154;DHT22;47555;51.038;6.280;2022-07-17T03:17:20;11.40;99.30
25154;DHT22;47555;51.038;6.280;2022-07-17T03:19:45;11.40;99.90
25154;DHT22;47555;51.038;6.280;2022-07-17T03:22:11;11.40;99.80
25154;DHT22;47555;51.038;6.280;2022-07-17T03:24:37;11.30;99.90
25154;DHT22;47555;51.038;6.280;2022-07-17T03:27:02;11.30;99.90
25154;DHT22;47555;51.038;6.280;2022-07-17T03:29:28;11.30;99.90
25154;DHT22;47555;51.038;6.280;2022-07-17T03:31:53;11.20;99.90
25154;DHT22;47555;51.038;6.280;2022-07-17T03:34:19;11.20;99.90
25154;DHT22;47555;51.038;6.280;2022-07-17T03:36:45;11.20;99.90
25154;DHT22;47555;51.038;6.280;2022-07-17T03:39:10;11.20;99.90
25154;DHT22;47555;51.038;6.280;2022-07-17T03:41:36;11.10;99.90
25154;DHT22;47555;51.038;6.280;2022-07-17T03:44:01;11.10;99.90
25154;DHT22;47555;51.038;6.280;2022-07-17T03:46:27;11.00;99.90
25154;DHT22;47555;51.038;6.280;2022-07-17T03:48:53;11.00;99.90
25154;DHT22;47555;51.038;6.280;2022-07-17T03:51:19;11.00;99.90
25154;DHT22;47555;51.038;6.280;2022-07-17T03:53:45;11.10;99.90
25154;DHT22;47555;51.038;6.280;2022-07-17T03:56:10;11.00;99.90
25154;DHT22;47555;51.038;6.280;2022-07-17T03:58:36;11.00;99.90
25154;DHT22;47555;51.038;6.280;2022-07-17T04:01:02;11.00;99.90
25154;DHT22;47555;51.038;6.280;2022-07-17T04:03:28;10.90;99.90
25154;DHT22;47555;51.038;6.280;2022-07-17T04:05:53;10.90;99.90
25154;DHT22;47555;51.038;6.280;2022-07-17T04:08:19;10.90;99.90
25154;DHT22;47555;51.038;6.280;2022-07-17T04:10:45;10.90;99.90
25154;DHT22;47555;51.038;6.280;2022-07-17T04:13:10;10.90;99.90
25154;DHT22;47555;51.038;6.280;2022-07-17T04:15:36;10.90;99.90
25154;DHT22;47555;51.038;6.280;2022-07-17T04:18:22;10.90;99.90
25154;DHT22;47555;51.038;6.280;2022-07-17T04:20:48;10.90;99.90
25154;DHT22;47555;51.038;6.280;2022-07-17T04:23:14;10.90;99.90
25154;DHT22;47555;51.038;6.280;2022-07-17T04:25:40;10.80;99.90
25154;DHT22;47555;51.038;6.280;2022-07-17T04:28:08;10.80;99.90
25154;DHT22;47555;51.038;6.280;2022-07-17T04:30:34;10.80;99.90
25154;DHT22;47555;51.038;6.280;2022-07-17T04:32:59;10.80;99.90
25154;DHT22;47555;51.038;6.280;2022-07-17T04:35:25;10.80;99.90
25154;DHT22;47555;51.038;6.280;2022-07-17T04:37:51;10.80;99.90
25154;DHT22;47555;51.038;6.280;2022-07-17T04:40:17;10.80;99.90
25154;DHT22;47555;51.038;6.280;2022-07-17T04:42:43;10.90;99.90
25154;DHT22;47555;51.038;6.280;2022-07-17T04:45:09;10.90;99.90
25154;DHT22;47555;51.038;6.280;2022-07-17T04:47:35;10.90;99.90
25154;DHT22;47555;51.038;6.280;2022-07-17T04:50:01;10.90;99.90
25154;DHT22;47555;51.038;6.280;2022-07-17T04:52:27;11.00;99.90
25154;DHT22;47555;51.038;6.280;2022-07-17T04:54:52;11.00;99.90
25154;DHT22;47555;51.038;6.280;2022-07-17T04:57:18;11.00;99.90
25154;DHT22;47555;51.038;6.280;2022-07-17T04:59:43;11.10;99.90
25154;DHT22;47555;51.038;6.280;2022-07-17T05:02:09;11.20;99.90
25154;DHT22;47555;51.038;6.280;2022-07-17T05:04:35;11.30;99.90
25154;DHT22;47555;51.038;6.280;2022-07-17T05:07:01;11.40;99.90
25154;DHT22;47555;51.038;6.280;2022-07-17T05:09:26;11.40;99.90
25154;DHT22;47555;51.038;6.280;2022-07-17T05:11:52;11.50;99.90
25154;DHT22;47555;51.038;6.280;2022-07-17T05:14:17;11.50;99.90
25154;DHT22;47555;51.038;6.280;2022-07-17T05:16:43;11.60;99.90
25154;DHT22;47555;51.038;6.280;2022-07-17T05:19:08;11.70;99.90
25154;DHT22;47555;51.038;6.280;2022-07-17T05:21:34;11.80;99.90
25154;DHT22;47555;51.038;6.280;2022-07-17T05:24:00;11.90;99.90
25154;DHT22;47555;51.038;6.280;2022-07-17T05:26:25;12.00;99.90
25154;DHT22;47555;51.038;6.280;2022-07-17T05:28:51;12.20;99.90
25154;DHT22;47555;51.038;6.280;2022-07-17T05:31:17;12.30;99.90
25154;DHT22;47555;51.038;6.280;2022-07-17T05:33:42;12.40;99.90
25154;DHT22;47555;51.038;6.280;2022-07-17T05:36:08;12.40;99.90
25154;DHT22;47555;51.038;6.280;2022-07-17T05:38:34;12.50;99.90
25154;DHT22;47555;51.038;6.280;2022-07-17T05:40:59;12.60;99.90
25154;DHT22;47555;51.038;6.280;2022-07-17T05:43:25;12.70;99.90
25154;DHT22;47555;51.038;6.280;2022-07-17T05:45:53;12.80;99.90
25154;DHT22;47555;51.038;6.280;2022-07-17T05:48:20;12.90;99.90
25154;DHT22;47555;51.038;6.280;2022-07-17T05:50:46;13.00;99.90
25154;DHT22;47555;51.038;6.280;2022-07-17T05:53:12;13.20;99.90
25154;DHT22;47555;51.038;6.280;2022-07-17T05:55:37;13.40;99.90
25154;DHT22;47555;51.038;6.280;2022-07-17T05:58:03;13.60;99.90
25154;DHT22;47555;51.038;6.280;2022-07-17T06:00:29;13.90;99.90
25154;DHT22;47555;51.038;6.280;2022-07-17T06:02:55;14.10;99.90
25154;DHT22;47555;51.038;6.280;2022-07-17T06:05:21;14.30;99.90
25154;DHT22;47555;51.038;6.280;2022-07-17T06:07:46;14.50;99.90
25154;DHT22;47555;51.038;6.280;2022-07-17T06:10:12;14.60;99.70
25154;DHT22;47555;51.038;6.280;2022-07-17T06:12:38;14.80;97.10
25154;DHT22;47555;51.038;6.280;2022-07-17T06:15:04;15.00;97.60
25154;DHT22;47555;51.038;6.280;2022-07-17T06:17:30;15.20;96.50
25154;DHT22;47555;51.038;6.280;2022-07-17T06:19:55;15.40;95.40
25154;DHT22;47555;51.038;6.280;2022-07-17T06:22:21;15.60;93.60
25154;DHT22;47555;51.038;6.280;2022-07-17T06:24:47;15.80;92.00
25154;DHT22;47555;51.038;6.280;2022-07-17T06:27:13;16.00;93.20
25154;DHT22;47555;51.038;6.280;2022-07-17T06:29:39;16.10;94.50
25154;DHT22;47555;51.038;6.280;2022-07-17T06:32:04;16.30;90.10
25154;DHT22;47555;51.038;6.280;2022-07-17T06:34:30;16.60;88.60
25154;DHT22;47555;51.038;6.280;2022-07-17T06:36:56;16.70;89.40
25154;DHT22;47555;51.038;6.280;2022-07-17T06:39:21;16.90;87.10
25154;DHT22;47555;51.038;6.280;2022-07-17T06:41:47;17.10;85.80
25154;DHT22;47555;51.038;6.280;2022-07-17T06:44:12;17.30;88.90
25154;DHT22;47555;51.038;6.280;2022-07-17T06:46:38;17.40;89.10
25154;DHT22;47555;51.038;6.280;2022-07-17T06:49:03;17.60;88.80
25154;DHT22;47555;51.038;6.280;2022-07-17T06:51:29;17.80;88.80
25154;DHT22;47555;51.038;6.280;2022-07-17T06:53:55;18.00;86.50
25154;DHT22;47555;51.038;6.280;2022-07-17T06:56:20;18.20;87.10
25154;DHT22;47555;51.038;6.280;2022-07-17T06:58:46;18.40;82.90
25154;DHT22;47555;51.038;6.280;2022-07-17T07:01:11;18.50;81.20
25154;DHT22;47555;51.038;6.280;2022-07-17T07:03:37;18.70;78.60
25154;DHT22;47555;51.038;6.280;2022-07-17T07:06:02;18.90;76.30
25154;DHT22;47555;51.038;6.280;2022-07-17T07:08:28;19.10;71.30
25154;DHT22;47555;51.038;6.280;2022-07-17T07:10:54;19.10;67.90
25154;DHT22;47555;51.038;6.280;2022-07-17T07:13:19;19.30;66.90
25154;DHT22;47555;51.038;6.280;2022-07-17T07:15:45;19.50;67.20
25154;DHT22;47555;51.038;6.280;2022-07-17T07:18:10;19.50;64.60
25154;DHT22;47555;51.038;6.280;2022-07-17T07:20:36;19.60;65.80
25154;DHT22;47555;51.038;6.280;2022-07-17T07:23:02;19.80;64.40
25154;DHT22;47555;51.038;6.280;2022-07-17T07:25:27;20.00;63.20
25154;DHT22;47555;51.038;6.280;2022-07-17T07:27:53;20.10;64.10
25154;DHT22;47555;51.038;6.280;2022-07-17T07:30:18;20.20;61.00
25154;DHT22;47555;51.038;6.280;2022-07-17T07:32:44;20.40;66.50
25154;DHT22;47555;51.038;6.280;2022-07-17T07:35:09;20.60;62.60
25154;DHT22;47555;51.038;6.280;2022-07-17T07:37:36;20.80;57.70
25154;DHT22;47555;51.038;6.280;2022-07-17T07:40:02;21.00;55.30
25154;DHT22;47555;51.038;6.280;2022-07-17T07:42:28;21.10;52.00
25154;DHT22;47555;51.038;6.280;2022-07-17T07:44:54;21.30;51.20
25154;DHT22;47555;51.038;6.280;2022-07-17T07:47:20;21.40;47.10
25154;DHT22;47555;51.038;6.280;2022-07-17T07:49:45;21.50;47.60
25154;DHT22;47555;51.038;6.280;2022-07-17T07:52:11;21.80;49.10
25154;DHT22;47555;51.038;6.280;2022-07-17T07:54:36;21.90;42.90
25154;DHT22;47555;51.038;6.280;2022-07-17T07:57:02;22.10;40.80
25154;DHT22;47555;51.038;6.280;2022-07-17T07:59:29;22.20;38.30
25154;DHT22;47555;51.038;6.280;2022-07-17T08:01:58;22.30;36.50
25154;DHT22;47555;51.038;6.280;2022-07-17T08:04:23;22.40;36.80
25154;DHT22;47555;51.038;6.280;2022-07-17T08:06:49;22.40;35.50
25154;DHT22;47555;51.038;6.280;2022-07-17T08:09:14;22.60;34.90
25154;DHT22;47555;51.038;6.280;2022-07-17T08:11:40;22.90;36.40
25154;DHT22;47555;51.038;6.280;2022-07-17T08:14:05;23.10;33.10
25154;DHT22;47555;51.038;6.280;2022-07-17T08:16:31;23.10;32.20
25154;DHT22;47555;51.038;6.280;2022-07-17T08:18:57;23.30;32.00
25154;DHT22;47555;51.038;6.280;2022-07-17T08:21:22;23.30;30.50
25154;DHT22;47555;51.038;6.280;2022-07-17T08:23:48;23.40;29.80
25154;DHT22;47555;51.038;6.280;2022-07-17T08:26:13;23.40;29.70
25154;DHT22;47555;51.038;6.280;2022-07-17T08:28:39;23.50;29.10
25154;DHT22;47555;51.038;6.280;2022-07-17T08:31:05;23.50;30.60
25154;DHT22;47555;51.038;6.280;2022-07-17T08:33:30;23.60;29.60
25154;DHT22;47555;51.038;6.280;2022-07-17T08:35:56;23.80;29.20
25154;DHT22;47555;51.038;6.280;2022-07-17T08:38:22;24.00;30.30
25154;DHT22;47555;51.038;6.280;2022-07-17T08:40:47;24.20;28.00
25154;DHT22;47555;51.038;6.280;2022-07-17T08:43:15;24.30;30.10
25154;DHT22;47555;51.038;6.280;2022-07-17T08:45:41;24.50;30.50
25154;DHT22;47555;51.038;6.280;2022-07-17T08:48:12;24.60;30.30
25154;DHT22;47555;51.038;6.280;2022-07-17T08:50:39;24.80;28.10
25154;DHT22;47555;51.038;6.280;2022-07-17T08:53:05;24.80;26.40
25154;DHT22;47555;51.038;6.280;2022-07-17T08:55:31;24.80;24.90
25154;DHT22;47555;51.038;6.280;2022-07-17T08:57:57;24.60;25.00
25154;DHT22;47555;51.038;6.280;2022-07-17T09:00:24;24.50;25.70
25154;DHT22;47555;51.038;6.280;2022-07-17T09:03:05;24.50;26.90
25154;DHT22;47555;51.038;6.280;2022-07-17T09:05:39;24.60;29.20
25154;DHT22;47555;51.038;6.280;2022-07-17T09:08:07;24.80;27.40
25154;DHT22;47555;51.038;6.280;2022-07-17T09:15:39;25.10;24.40
25154;DHT22;47555;51.038;6.280;2022-07-17T09:18:04;25.20;23.90
25154;DHT22;47555;51.038;6.280;2022-07-17T09:20:30;25.20;26.50
25154;DHT22;47555;51.038;6.280;2022-07-17T09:23:01;25.20;25.40
25154;DHT22;47555;51.038;6.280;2022-07-17T09:25:36;25.30;24.70
25154;DHT22;47555;51.038;6.280;2022-07-17T09:28:04;25.30;24.20
25154;DHT22;47555;51.038;6.280;2022-07-17T09:30:30;25.20;22.40
25154;DHT22;47555;51.038;6.280;2022-07-17T09:32:57;25.20;23.10
25154;DHT22;47555;51.038;6.280;2022-07-17T09:35:23;25.10;24.30
25154;DHT22;47555;51.038;6.280;2022-07-17T09:37:53;25.10;25.10
25154;DHT22;47555;51.038;6.280;2022-07-17T09:40:21;25.30;23.90
25154;DHT22;47555;51.038;6.280;2022-07-17T09:43:06;25.30;23.80
25154;DHT22;47555;51.038;6.280;2022-07-17T09:45:33;25.50;25.00
25154;DHT22;47555;51.038;6.280;2022-07-17T09:48:00;25.60;24.00
25154;DHT22;47555;51.038;6.280;2022-07-17T09:50:27;25.60;24.90
25154;DHT22;47555;51.038;6.280;2022-07-17T09:52:53;25.70;25.80
25154;DHT22;47555;51.038;6.280;2022-07-17T09:55:22;25.70;24.30
25154;DHT22;47555;51.038;6.280;2022-07-17T09:57:54;25.70;23.20
25154;DHT22;47555;51.038;6.280;2022-07-17T10:00:21;25.70;24.20
25154;DHT22;47555;51.038;6.280;2022-07-17T10:02:48;25.50;23.10
25154;DHT22;47555;51.038;6.280;2022-07-17T10:05:16;25.60;23.30
25154;DHT22;47555;51.038;6.280;2022-07-17T10:07:42;25.70;26.60
25154;DHT22;47555;51.038;6.280;2022-07-17T10:10:09;25.80;25.10
25154;DHT22;47555;51.038;6.280;2022-07-17T10:12:39;25.90;25.30
25154;DHT22;47555;51.038;6.280;2022-07-17T10:15:06;25.90;22.80
25154;DHT22;47555;51.038;6.280;2022-07-17T10:17:32;26.00;23.50
25154;DHT22;47555;51.038;6.280;2022-07-17T10:19:58;26.20;23.00
25154;DHT22;47555;51.038;6.280;2022-07-17T10:22:25;26.30;22.60
25154;DHT22;47555;51.038;6.280;2022-07-17T10:24:52;26.40;22.40
25154;DHT22;47555;51.038;6.280;2022-07-17T10:27:20;26.60;23.80
25154;DHT22;47555;51.038;6.280;2022-07-17T10:29:46;26.70;22.90
25154;DHT22;47555;51.038;6.280;2022-07-17T10:32:17;26.70;21.60
25154;DHT22;47555;51.038;6.280;2022-07-17T10:34:47;26.70;23.40
25154;DHT22;47555;51.038;6.280;2022-07-17T10:37:39;26.70;22.40
25154;DHT22;47555;51.038;6.280;2022-07-17T10:40:10;26.70;20.50
25154;DHT22;47555;51.038;6.280;2022-07-17T10:45:10;26.80;21.20
25154;DHT22;47555;51.038;6.280;2022-07-17T10:50:12;26.90;20.00
25154;DHT22;47555;51.038;6.280;2022-07-17T10:52:38;26.90;19.70
25154;DHT22;47555;51.038;6.280;2022-07-17T10:55:05;26.80;21.00
25154;DHT22;47555;51.038;6.280;2022-07-17T10:57:32;26.90;22.50
25154;DHT22;47555;51.038;6.280;2022-07-17T10:59:57;26.90;21.50
25154;DHT22;47555;51.038;6.280;2022-07-17T11:02:29;27.00;22.60
25154;DHT22;47555;51.038;6.280;2022-07-17T11:05:15;27.10;20.00
25154;DHT22;47555;51.038;6.280;2022-07-17T11:07:57;26.90;19.20
25154;DHT22;47555;51.038;6.280;2022-07-17T11:10:26;26.90;20.50
25154;DHT22;47555;51.038;6.280;2022-07-17T11:13:15;26.90;20.90
25154;DHT22;47555;51.038;6.280;2022-07-17T11:15:46;27.00;20.90
25154;DHT22;47555;51.038;6.280;2022-07-17T11:20:59;27.10;21.60
25154;DHT22;47555;51.038;6.280;2022-07-17T11:23:27;27.00;21.70
25154;DHT22;47555;51.038;6.280;2022-07-17T11:26:05;27.00;21.00
25154;DHT22;47555;51.038;6.280;2022-07-17T11:28:36;27.10;22.50
25154;DHT22;47555;51.038;6.280;2022-07-17T11:31:03;27.20;22.10
25154;DHT22;47555;51.038;6.280;2022-07-17T11:33:29;27.30;21.70
25154;DHT22;47555;51.038;6.280;2022-07-17T11:35:55;27.30;21.40
25154;DHT22;47555;51.038;6.280;2022-07-17T11:38:26;27.40;21.40
25154;DHT22;47555;51.038;6.280;2022-07-17T11:40:52;27.40;23.10
25154;DHT22;47555;51.038;6.280;2022-07-17T11:43:18;27.40;19.70
25154;DHT22;47555;51.038;6.280;2022-07-17T11:45:44;27.40;20.40
25154;DHT22;47555;51.038;6.280;2022-07-17T11:48:09;27.40;20.00
25154;DHT22;47555;51.038;6.280;2022-07-17T11:50:35;27.50;21.20
25154;DHT22;47555;51.038;6.280;2022-07-17T11:53:03;27.60;21.50
25154;DHT22;47555;51.038;6.280;2022-07-17T11:55:41;27.60;20.80
25154;DHT22;47555;51.038;6.280;2022-07-17T11:58:07;27.60;20.10
25154;DHT22;47555;51.038;6.280;2022-07-17T12:00:34;27.70;20.30
25154;DHT22;47555;51.038;6.280;2022-07-17T12:03:01;27.70;19.60
25154;DHT22;47555;51.038;6.280;2022-07-17T12:05:31;27.60;19.80
25154;DHT22;47555;51.038;6.280;2022-07-17T12:07:58;27.70;20.30
25154;DHT22;47555;51.038;6.280;2022-07-17T12:10:25;27.80;18.50
25154;DHT22;47555;51.038;6.280;2022-07-17T12:13:02;27.60;19.20
25154;DHT22;47555;51.038;6.280;2022-07-17T12:15:47;27.50;19.80
25154;DHT22;47555;51.038;6.280;2022-07-17T12:18:29;27.50;20.90
25154;DHT22;47555;51.038;6.280;2022-07-17T12:20:58;27.60;19.70
25154;DHT22;47555;51.038;6.280;2022-07-17T12:23:36;27.50;20.20
25154;DHT22;47555;51.038;6.280;2022-07-17T12:26:08;27.70;21.70
25154;DHT22;47555;51.038;6.280;2022-07-17T12:28:35;27.90;21.40
25154;DHT22;47555;51.038;6.280;2022-07-17T12:31:01;27.90;20.00
25154;DHT22;47555;51.038;6.280;2022-07-17T12:33:26;28.00;19.90
25154;DHT22;47555;51.038;6.280;2022-07-17T12:35:52;27.90;19.50
25154;DHT22;47555;51.038;6.280;2022-07-17T12:38:18;28.10;19.80
25154;DHT22;47555;51.038;6.280;2022-07-17T12:40:43;28.30;19.50
25154;DHT22;47555;51.038;6.280;2022-07-17T12:43:09;28.40;19.60
25154;DHT22;47555;51.038;6.280;2022-07-17T12:45:35;28.50;19.50
25154;DHT22;47555;51.038;6.280;2022-07-17T12:48:00;28.60;18.80
25154;DHT22;47555;51.038;6.280;2022-07-17T12:50:26;28.70;18.60
25154;DHT22;47555;51.038;6.280;2022-07-17T12:52:52;28.70;18.30
25154;DHT22;47555;51.038;6.280;2022-07-17T12:55:17;28.70;19.10
25154;DHT22;47555;51.038;6.280;2022-07-17T12:57:43;28.80;19.40
25154;DHT22;47555;51.038;6.280;2022-07-17T13:00:09;28.70;19.10
25154;DHT22;47555;51.038;6.280;2022-07-17T13:02:36;28.70;18.90
25154;DHT22;47555;51.038;6.280;2022-07-17T13:05:01;28.70;17.60
25154;DHT22;47555;51.038;6.280;2022-07-17T13:07:27;28.60;18.50
25154;DHT22;47555;51.038;6.280;2022-07-17T13:09:53;28.60;17.00
25154;DHT22;47555;51.038;6.280;2022-07-17T13:12:18;28.60;17.30
25154;DHT22;47555;51.038;6.280;2022-07-17T13:14:44;28.50;18.00
25154;DHT22;47555;51.038;6.280;2022-07-17T13:17:10;28.50;16.80
25154;DHT22;47555;51.038;6.280;2022-07-17T13:19:35;28.50;17.60
25154;DHT22;47555;51.038;6.280;2022-07-17T13:22:02;28.40;17.80
25154;DHT22;47555;51.038;6.280;2022-07-17T13:24:29;28.50;17.40
25154;DHT22;47555;51.038;6.280;2022-07-17T13:26:55;28.50;17.50
25154;DHT22;47555;51.038;6.280;2022-07-17T13:29:20;28.70;18.70
25154;DHT22;47555;51.038;6.280;2022-07-17T13:31:46;28.80;18.50
25154;DHT22;47555;51.038;6.280;2022-07-17T13:34:12;28.90;16.70
25154;DHT22;47555;51.038;6.280;2022-07-17T13:36:37;29.10;17.70
25154;DHT22;47555;51.038;6.280;2022-07-17T13:39:04;29.10;15.80
25154;DHT22;47555;51.038;6.280;2022-07-17T13:41:30;29.30;16.90
25154;DHT22;47555;51.038;6.280;2022-07-17T13:43:56;29.40;16.50
25154;DHT22;47555;51.038;6.280;2022-07-17T13:46:21;29.60;16.40
25154;DHT22;47555;51.038;6.280;2022-07-17T13:48:47;29.60;15.40
25154;DHT22;47555;51.038;6.280;2022-07-17T13:51:13;29.50;15.90
25154;DHT22;47555;51.038;6.280;2022-07-17T13:53:39;29.40;13.70
25154;DHT22;47555;51.038;6.280;2022-07-17T13:56:05;29.20;14.80
25154;DHT22;47555;51.038;6.280;2022-07-17T13:58:30;29.10;16.30
25154;DHT22;47555;51.038;6.280;2022-07-17T14:00:58;29.10;16.50
25154;DHT22;47555;51.038;6.280;2022-07-17T14:03:23;29.20;16.00
25154;DHT22;47555;51.038;6.280;2022-07-17T14:05:49;29.30;15.90
25154;DHT22;47555;51.038;6.280;2022-07-17T14:08:15;29.40;15.50
25154;DHT22;47555;51.038;6.280;2022-07-17T14:10:41;29.60;15.70
25154;DHT22;47555;51.038;6.280;2022-07-17T14:13:06;29.80;16.30
25154;DHT22;47555;51.038;6.280;2022-07-17T14:15:32;29.90;15.80
25154;DHT22;47555;51.038;6.280;2022-07-17T14:17:57;29.90;14.70
25154;DHT22;47555;51.038;6.280;2022-07-17T14:20:23;29.70;14.20
25154;DHT22;47555;51.038;6.280;2022-07-17T14:22:49;29.60;14.20
25154;DHT22;47555;51.038;6.280;2022-07-17T14:25:14;29.60;15.20
25154;DHT22;47555;51.038;6.280;2022-07-17T14:27:40;29.60;14.00
25154;DHT22;47555;51.038;6.280;2022-07-17T14:30:06;29.60;15.30
25154;DHT22;47555;51.038;6.280;2022-07-17T14:32:32;29.60;15.40
25154;DHT22;47555;51.038;6.280;2022-07-17T14:34:57;29.60;14.40
25154;DHT22;47555;51.038;6.280;2022-07-17T14:37:23;29.70;15.10
25154;DHT22;47555;51.038;6.280;2022-07-17T14:39:49;29.70;15.30
25154;DHT22;47555;51.038;6.280;2022-07-17T14:42:15;29.80;15.70
25154;DHT22;47555;51.038;6.280;2022-07-17T14:44:40;30.00;14.80
25154;DHT22;47555;51.038;6.280;2022-07-17T14:47:06;29.90;14.60
25154;DHT22;47555;51.038;6.280;2022-07-17T14:49:33;29.80;14.30
25154;DHT22;47555;51.038;6.280;2022-07-17T14:51:58;29.80;13.80
25154;DHT22;47555;51.038;6.280;2022-07-17T14:54:24;29.80;14.40
25154;DHT22;47555;51.038;6.280;2022-07-17T14:56:50;29.80;14.40
25154;DHT22;47555;51.038;6.280;2022-07-17T14:59:15;29.80;14.10
25154;DHT22;47555;51.038;6.280;2022-07-17T15:01:41;29.80;14.80
25154;DHT22;47555;51.038;6.280;2022-07-17T15:04:06;29.70;14.70
25154;DHT22;47555;51.038;6.280;2022-07-17T15:06:32;29.60;13.90
25154;DHT22;47555;51.038;6.280;2022-07-17T15:08:57;29.70;14.20
25154;DHT22;47555;51.038;6.280;2022-07-17T15:11:23;29.80;15.00
25154;DHT22;47555;51.038;6.280;2022-07-17T15:13:48;29.80;15.20
25154;DHT22;47555;51.038;6.280;2022-07-17T15:16:14;29.80;14.60
25154;DHT22;47555;51.038;6.280;2022-07-17T15:18:39;29.70;13.40
25154;DHT22;47555;51.038;6.280;2022-07-17T15:21:06;29.50;14.00
25154;DHT22;47555;51.038;6.280;2022-07-17T15:23:32;29.40;15.60
25154;DHT22;47555;51.038;6.280;2022-07-17T15:25:58;29.30;15.80
25154;DHT22;47555;51.038;6.280;2022-07-17T15:28:23;29.20;15.60
25154;DHT22;47555;51.038;6.280;2022-07-17T15:30:49;29.10;14.80
25154;DHT22;47555;51.038;6.280;2022-07-17T15:33:14;29.00;15.50
25154;DHT22;47555;51.038;6.280;2022-07-17T15:35:40;29.00;15.50
25154;DHT22;47555;51.038;6.280;2022-07-17T15:38:05;29.10;15.70
25154;DHT22;47555;51.038;6.280;2022-07-17T15:40:31;29.20;15.40